Brevik Bridge — VRHY7 — position and weather

sailwx.info

Track history (hours):
 
Tides and Currents Weather Stations Pressure Air Temp Water Temp Dewpoint Dewpoint Depression Visibility Wind Speed Wind Dir Waves Ship Positions

Brevik Bridge

Last reported at 2017-Nov-23 15:00 UTC. Time now 2017-Nov-23 15:10 UTC.
Position N 32°07' W 081°08'.

Length 268 m; draft 9.5 m.

Type: Cargo ship. MMSI: 477866200.

Date/timePositionNaut miles runAvg speedWind from/ knotsBaromVisibWave heightAir tempDewpointWater temp
2017-Nov-23 15:00N 32°07' W 081°08'3 6.4
2017-Nov-23 14:30N 32°05' W 081°06'5 9.3
2017-Nov-23 14:01N 32°06' W 081°00'713.9
2017-Nov-23 13:30N 32°02' W 080°53'815.5
2017-Nov-23 13:00N 31°59' W 080°45'612.0
2017-Nov-23 12:30N 31°57' W 080°38'5 9.8
2017-Nov-23 12:00N 31°58' W 080°33'5 9.8
2017-Nov-23 11:29N 31°58' W 080°27'  
2017-Nov-20 00:30N 40°40' W 074°08'0 0.0
2017-Nov-20 00:00N 40°40' W 074°08'0 0.0
2017-Nov-19 23:31N 40°40' W 074°08'0 0.0
2017-Nov-19 23:00N 40°40' W 074°08'0 0.0
2017-Nov-19 22:30N 40°40' W 074°08'0 0.0
2017-Nov-19 22:00N 40°40' W 074°08'0 0.0
2017-Nov-19 21:30N 40°40' W 074°08'0 0.0
2017-Nov-19 21:00N 40°40' W 074°09'0 0.1
2017-Nov-19 20:30N 40°40' W 074°08'0 0.0
2017-Nov-19 20:00N 40°40' W 074°08'0 0.0
2017-Nov-19 19:30N 40°40' W 074°08'0 0.0
2017-Nov-19 19:00N 40°40' W 074°08'0 0.0
2017-Nov-19 18:30N 40°40' W 074°08'0 0.0
2017-Nov-19 18:00N 40°40' W 074°08'0 0.0
2017-Nov-19 17:30N 40°40' W 074°08'0 0.0
2017-Nov-19 17:00N 40°40' W 074°08'0 0.0
2017-Nov-19 16:30N 40°40' W 074°08'0 0.0
2017-Nov-19 16:00N 40°40' W 074°08'0 0.0
2017-Nov-19 15:30N 40°40' W 074°08'0 0.0
2017-Nov-19 15:01N 40°40' W 074°08'0 0.0
2017-Nov-19 14:30N 40°40' W 074°08'0 0.0
2017-Nov-19 14:00N 40°40' W 074°08'0 0.0
2017-Nov-19 13:30N 40°40' W 074°08'0 0.0
2017-Nov-19 13:00N 40°40' W 074°08'0 0.0
2017-Nov-19 12:30N 40°40' W 074°08'0 0.0
2017-Nov-19 12:00N 40°40' W 074°08'0 0.0
2017-Nov-19 11:30N 40°40' W 074°08'0 0.0
2017-Nov-19 11:00N 40°40' W 074°09'1 2.5
2017-Nov-19 10:30N 40°39' W 074°09'3 7.0
2017-Nov-19 10:00N 40°39' W 074°04'5 9.5
2017-Nov-19 09:31N 40°35' W 074°02'510.3
2017-Nov-19 09:00N 40°31' W 073°58'510.2
2017-Nov-19 08:30N 40°28' W 073°52'4 8.9
2017-Nov-19 08:00N 40°26' W 073°47'4 7.0
2017-Nov-19 07:30N 40°27' W 073°42'4 8.7
2017-Nov-19 07:00N 40°28' W 073°36'5 8.9
2017-Nov-19 06:27N 40°28' W 073°30'  
Track history (hours):
 
Tides and Currents Weather Stations Pressure Air Temp Water Temp Dewpoint Dewpoint Depression Visibility Wind Speed Wind Dir Waves Ship Positions

Brevik Bridge

Last reported at 2017-Nov-23 15:00 UTC. Time now 2017-Nov-23 15:10 UTC.
Position N 32°07' W 081°08'.

Length 268 m; draft 9.5 m.

Type: Cargo ship. MMSI: 477866200.

Date/timePositionNaut miles runAvg speedWind from/ knotsBaromVisibWave heightAir tempDewpointWater temp
2017-Nov-23 15:00N 32°07' W 081°08'3 6.4
2017-Nov-23 14:30N 32°05' W 081°06'5 9.3
2017-Nov-23 14:01N 32°06' W 081°00'713.9
2017-Nov-23 13:30N 32°02' W 080°53'815.5
2017-Nov-23 13:00N 31°59' W 080°45'612.0
2017-Nov-23 12:30N 31°57' W 080°38'5 9.8
2017-Nov-23 12:00N 31°58' W 080°33'5 9.8
2017-Nov-23 11:29N 31°58' W 080°27'  
2017-Nov-20 00:30N 40°40' W 074°08'0 0.0
2017-Nov-20 00:00N 40°40' W 074°08'0 0.0
2017-Nov-19 23:31N 40°40' W 074°08'0 0.0
2017-Nov-19 23:00N 40°40' W 074°08'0 0.0
2017-Nov-19 22:30N 40°40' W 074°08'0 0.0
2017-Nov-19 22:00N 40°40' W 074°08'0 0.0
2017-Nov-19 21:30N 40°40' W 074°08'0 0.0
2017-Nov-19 21:00N 40°40' W 074°09'0 0.1
2017-Nov-19 20:30N 40°40' W 074°08'0 0.0
2017-Nov-19 20:00N 40°40' W 074°08'0 0.0
2017-Nov-19 19:30N 40°40' W 074°08'0 0.0
2017-Nov-19 19:00N 40°40' W 074°08'0 0.0
2017-Nov-19 18:30N 40°40' W 074°08'0 0.0
2017-Nov-19 18:00N 40°40' W 074°08'0 0.0
2017-Nov-19 17:30N 40°40' W 074°08'0 0.0
2017-Nov-19 17:00N 40°40' W 074°08'0 0.0
2017-Nov-19 16:30N 40°40' W 074°08'0 0.0
2017-Nov-19 16:00N 40°40' W 074°08'0 0.0
2017-Nov-19 15:30N 40°40' W 074°08'0 0.0
2017-Nov-19 15:01N 40°40' W 074°08'0 0.0
2017-Nov-19 14:30N 40°40' W 074°08'0 0.0
2017-Nov-19 14:00N 40°40' W 074°08'0 0.0
2017-Nov-19 13:30N 40°40' W 074°08'0 0.0
2017-Nov-19 13:00N 40°40' W 074°08'0 0.0
2017-Nov-19 12:30N 40°40' W 074°08'0 0.0
2017-Nov-19 12:00N 40°40' W 074°08'0 0.0
2017-Nov-19 11:30N 40°40' W 074°08'0 0.0
2017-Nov-19 11:00N 40°40' W 074°09'1 2.5
2017-Nov-19 10:30N 40°39' W 074°09'3 7.0
2017-Nov-19 10:00N 40°39' W 074°04'5 9.5
2017-Nov-19 09:31N 40°35' W 074°02'510.3
2017-Nov-19 09:00N 40°31' W 073°58'510.2
2017-Nov-19 08:30N 40°28' W 073°52'4 8.9
2017-Nov-19 08:00N 40°26' W 073°47'4 7.0
2017-Nov-19 07:30N 40°27' W 073°42'4 8.7
2017-Nov-19 07:00N 40°28' W 073°36'5 8.9
2017-Nov-19 06:27N 40°28' W 073°30'  

Dump ship's entire track history